createdAt,value
2022-10-31T00:00:08.578Z,13.86
2022-10-31T00:02:34.779Z,13.74
2022-10-31T00:05:01.460Z,13.77
2022-10-31T00:07:27.558Z,13.86
2022-10-31T00:09:53.654Z,13.91
2022-10-31T00:12:19.777Z,13.94
2022-10-31T00:14:45.868Z,13.96
2022-10-31T00:17:11.984Z,13.96
2022-10-31T00:19:38.109Z,13.98
2022-10-31T00:22:04.204Z,13.92
2022-10-31T00:24:30.296Z,13.78
2022-10-31T00:26:56.400Z,13.81
2022-10-31T00:29:22.495Z,13.85
2022-10-31T00:31:48.780Z,13.92
2022-10-31T00:34:14.921Z,13.91
2022-10-31T00:36:41.013Z,13.92
2022-10-31T00:39:07.105Z,13.87
2022-10-31T00:41:33.226Z,13.88
2022-10-31T00:43:59.341Z,13.82
2022-10-31T00:46:25.451Z,13.82
2022-10-31T00:48:51.567Z,13.78
2022-10-31T00:51:17.664Z,13.83
2022-10-31T00:53:43.765Z,13.84
2022-10-31T00:56:09.895Z,13.91
2022-10-31T00:58:35.995Z,13.92
2022-10-31T01:01:02.157Z,13.87
2022-10-31T01:03:28.815Z,13.92
2022-10-31T01:05:54.900Z,13.97
2022-10-31T01:08:20.978Z,13.98
2022-10-31T01:10:47.129Z,14.02
2022-10-31T01:13:13.255Z,13.92
2022-10-31T01:15:39.384Z,13.78
2022-10-31T01:18:05.500Z,13.80
2022-10-31T01:20:31.603Z,13.81
2022-10-31T01:22:57.701Z,13.77
2022-10-31T01:25:23.818Z,13.89
2022-10-31T01:27:49.914Z,13.93
2022-10-31T01:30:16.017Z,13.73
2022-10-31T01:32:42.130Z,13.70
2022-10-31T01:35:08.231Z,13.72
2022-10-31T01:37:34.328Z,13.79
2022-10-31T01:40:00.929Z,13.93
2022-10-31T01:42:27.036Z,13.88
2022-10-31T01:44:53.131Z,13.73
2022-10-31T01:47:19.242Z,13.70
2022-10-31T01:49:45.327Z,13.61
2022-10-31T01:52:11.429Z,13.66
2022-10-31T01:54:37.551Z,13.67
2022-10-31T01:57:03.633Z,13.79
2022-10-31T01:59:29.722Z,13.77
2022-10-31T02:01:55.968Z,13.84
2022-10-31T02:04:22.186Z,13.79
2022-10-31T02:06:48.293Z,13.63
2022-10-31T02:09:14.414Z,13.63
2022-10-31T02:11:40.525Z,13.66
2022-10-31T02:14:06.642Z,13.66
2022-10-31T02:16:32.745Z,13.65
2022-10-31T02:18:58.837Z,13.66
2022-10-31T02:21:24.935Z,13.76
2022-10-31T02:23:51.047Z,13.72
2022-10-31T02:26:17.140Z,13.72
2022-10-31T02:28:43.269Z,13.64
2022-10-31T02:31:09.378Z,13.71
2022-10-31T02:33:35.478Z,13.63
2022-10-31T02:36:01.571Z,13.78
2022-10-31T02:38:27.728Z,13.78
2022-10-31T02:40:53.832Z,13.74
2022-10-31T02:43:19.928Z,13.68
2022-10-31T02:45:46.055Z,13.62
2022-10-31T02:48:12.153Z,13.75
2022-10-31T02:50:38.237Z,13.90
2022-10-31T02:53:04.355Z,13.88
2022-10-31T02:55:30.446Z,13.73
2022-10-31T02:57:56.769Z,13.70
2022-10-31T03:00:23.019Z,13.63
2022-10-31T03:02:49.106Z,13.64
2022-10-31T03:05:15.213Z,13.66
2022-10-31T03:07:41.332Z,13.59
2022-10-31T03:10:07.442Z,13.54
2022-10-31T03:12:33.537Z,13.39
2022-10-31T03:14:59.941Z,13.43
2022-10-31T03:17:26.046Z,13.39
2022-10-31T03:19:52.136Z,13.47
2022-10-31T03:22:18.288Z,13.52
2022-10-31T03:24:44.382Z,13.54
2022-10-31T03:27:10.500Z,13.36
2022-10-31T03:29:36.613Z,13.27
2022-10-31T03:32:02.706Z,13.24
2022-10-31T03:34:28.818Z,13.29
2022-10-31T03:36:54.915Z,13.42
2022-10-31T03:39:30.305Z,13.38
2022-10-31T03:41:56.407Z,13.41
2022-10-31T03:44:22.512Z,13.26
2022-10-31T03:46:48.600Z,13.03
2022-10-31T03:49:14.717Z,12.82
2022-10-31T03:51:40.812Z,12.76
2022-10-31T03:54:06.908Z,12.74
2022-10-31T03:56:33.024Z,12.79
2022-10-31T03:58:59.111Z,12.76
2022-10-31T04:01:25.312Z,12.79
2022-10-31T04:03:51.503Z,12.84
2022-10-31T04:06:17.615Z,12.74
2022-10-31T04:08:43.721Z,12.83
2022-10-31T04:11:09.877Z,12.86
2022-10-31T04:13:35.992Z,12.81
2022-10-31T04:16:02.088Z,12.67
2022-10-31T04:18:28.493Z,12.69
2022-10-31T04:20:54.585Z,12.54
2022-10-31T04:23:20.701Z,12.64
2022-10-31T04:25:46.810Z,12.71
2022-10-31T04:28:12.980Z,12.65
2022-10-31T04:30:39.091Z,12.66
2022-10-31T04:33:05.188Z,12.60
2022-10-31T04:35:31.283Z,12.68
2022-10-31T04:37:57.376Z,12.80
2022-10-31T04:40:23.535Z,12.64
2022-10-31T04:42:49.631Z,12.65
2022-10-31T04:45:18.520Z,12.72
2022-10-31T04:47:47.575Z,12.78
2022-10-31T04:50:13.676Z,12.67
2022-10-31T04:52:39.764Z,12.78
2022-10-31T04:55:05.874Z,12.87
2022-10-31T04:57:31.984Z,12.79
2022-10-31T04:59:58.079Z,12.74
2022-10-31T05:02:24.268Z,12.74
2022-10-31T05:04:50.407Z,12.87
2022-10-31T05:07:16.509Z,12.79
2022-10-31T05:09:42.631Z,12.63
2022-10-31T05:12:08.742Z,12.67
2022-10-31T05:14:34.848Z,12.64
2022-10-31T05:17:00.967Z,12.76
2022-10-31T05:19:27.069Z,12.81
2022-10-31T05:21:53.152Z,12.62
2022-10-31T05:24:19.677Z,12.29
2022-10-31T05:26:45.786Z,12.33
2022-10-31T05:29:11.880Z,12.54
2022-10-31T05:31:38.030Z,12.68
2022-10-31T05:34:04.135Z,12.74
2022-10-31T05:36:30.231Z,12.82
2022-10-31T05:38:56.349Z,12.39
2022-10-31T05:41:22.452Z,12.34
2022-10-31T05:43:48.548Z,12.29
2022-10-31T05:46:14.672Z,12.32
2022-10-31T05:48:40.755Z,12.27
2022-10-31T05:51:06.840Z,12.35
2022-10-31T05:53:33.264Z,12.31
2022-10-31T05:55:59.372Z,12.42
2022-10-31T05:58:25.465Z,12.46
2022-10-31T06:00:51.578Z,12.20
2022-10-31T06:03:18.148Z,12.27
2022-10-31T06:05:44.396Z,12.31
2022-10-31T06:08:10.517Z,12.35
2022-10-31T06:10:36.613Z,12.35
2022-10-31T06:13:02.721Z,12.25
2022-10-31T06:15:28.885Z,12.28
2022-10-31T06:17:54.997Z,12.28
2022-10-31T06:20:21.103Z,12.33
2022-10-31T06:22:47.233Z,12.28
2022-10-31T06:25:13.337Z,12.26
2022-10-31T06:27:39.437Z,12.22
2022-10-31T06:30:05.563Z,12.30
2022-10-31T06:32:31.684Z,12.31
2022-10-31T06:34:57.773Z,12.25
2022-10-31T06:37:23.887Z,12.24
2022-10-31T06:39:49.984Z,12.28
2022-10-31T06:42:16.081Z,12.17
2022-10-31T06:44:42.193Z,12.11
2022-10-31T06:47:08.292Z,12.11
2022-10-31T06:49:34.388Z,12.14
2022-10-31T06:52:00.492Z,12.21
2022-10-31T06:54:26.598Z,12.19
2022-10-31T06:56:52.702Z,12.09
2022-10-31T06:59:18.919Z,12.22
2022-10-31T07:01:45.102Z,12.34
2022-10-31T07:04:11.285Z,12.41
2022-10-31T07:06:37.490Z,12.34
2022-10-31T07:09:03.603Z,12.22
2022-10-31T07:11:29.701Z,12.32
2022-10-31T07:13:55.816Z,12.41
2022-10-31T07:16:21.913Z,12.36
2022-10-31T07:18:48.020Z,12.34
2022-10-31T07:21:14.135Z,12.20
2022-10-31T07:23:40.226Z,12.30
2022-10-31T07:26:06.320Z,12.46
2022-10-31T07:28:32.521Z,12.54
2022-10-31T07:30:58.621Z,12.62
2022-10-31T07:33:24.728Z,12.65
2022-10-31T07:35:50.837Z,12.72
2022-10-31T07:38:16.926Z,12.62
2022-10-31T07:40:43.046Z,12.59
2022-10-31T07:43:13.950Z,12.76
2022-10-31T07:45:40.775Z,12.72
2022-10-31T07:48:06.869Z,12.62
2022-10-31T07:50:32.984Z,12.69
2022-10-31T07:52:59.085Z,12.75
2022-10-31T07:55:25.180Z,12.93
2022-10-31T07:57:51.773Z,12.88
2022-10-31T08:00:17.903Z,12.92
2022-10-31T08:02:43.999Z,12.92
2022-10-31T08:05:10.109Z,13.03
2022-10-31T08:10:07.215Z,13.13
2022-10-31T08:12:33.330Z,13.22
2022-10-31T08:14:59.433Z,13.26
2022-10-31T08:17:25.532Z,13.25
2022-10-31T08:19:51.635Z,13.21
2022-10-31T08:22:17.752Z,13.35
2022-10-31T08:24:43.862Z,13.39
2022-10-31T08:27:09.988Z,13.41
2022-10-31T08:29:36.090Z,13.45
2022-10-31T08:32:02.201Z,13.51
2022-10-31T08:34:28.365Z,13.57
2022-10-31T08:36:54.460Z,13.66
2022-10-31T08:39:20.562Z,13.77
2022-10-31T08:41:46.844Z,13.75
2022-10-31T08:44:12.979Z,13.67
2022-10-31T08:46:39.133Z,13.69
2022-10-31T08:49:05.248Z,13.77
2022-10-31T08:51:31.345Z,13.78
2022-10-31T08:53:57.442Z,13.88
2022-10-31T08:56:23.576Z,14.01
2022-10-31T08:58:49.670Z,14.10
2022-10-31T09:01:15.847Z,14.14
2022-10-31T09:03:42.091Z,14.19
2022-10-31T09:06:08.299Z,14.18
2022-10-31T09:08:34.439Z,14.19
2022-10-31T09:11:00.606Z,14.27
2022-10-31T09:13:28.313Z,14.36
2022-10-31T09:15:54.565Z,14.30
2022-10-31T09:18:20.703Z,14.36
2022-10-31T09:20:46.800Z,14.39
2022-10-31T09:23:12.886Z,14.42
2022-10-31T09:25:38.995Z,14.49
2022-10-31T09:28:05.091Z,14.58
2022-10-31T09:30:33.205Z,14.64
2022-10-31T09:32:59.394Z,14.74
2022-10-31T09:35:25.937Z,14.81
2022-10-31T09:37:52.168Z,14.85
2022-10-31T09:40:18.273Z,14.95
2022-10-31T09:42:44.375Z,15.06
2022-10-31T09:45:10.487Z,15.11
2022-10-31T09:47:36.599Z,15.16
2022-10-31T09:50:02.710Z,15.23
2022-10-31T09:52:28.813Z,15.32
2022-10-31T09:54:54.985Z,15.40
2022-10-31T09:57:21.097Z,15.43
2022-10-31T09:59:47.186Z,15.54
2022-10-31T10:02:13.374Z,15.63
2022-10-31T10:04:39.539Z,15.70
2022-10-31T10:07:05.623Z,15.80
2022-10-31T10:09:31.749Z,15.86
2022-10-31T10:11:57.875Z,15.94
2022-10-31T10:14:23.982Z,16.01
2022-10-31T10:16:50.109Z,16.07
2022-10-31T10:19:16.209Z,16.17
2022-10-31T10:21:42.290Z,16.26
2022-10-31T10:24:08.406Z,16.35
2022-10-31T10:26:34.510Z,16.39
2022-10-31T10:29:00.620Z,16.48
2022-10-31T10:31:26.760Z,16.50
2022-10-31T10:33:52.855Z,16.62
2022-10-31T10:36:18.956Z,16.69
2022-10-31T10:38:45.364Z,16.72
2022-10-31T10:41:11.575Z,16.79
2022-10-31T10:43:37.752Z,16.92
2022-10-31T10:46:06.523Z,16.98
2022-10-31T10:48:35.396Z,17.10
2022-10-31T10:51:01.541Z,17.22
2022-10-31T10:53:27.669Z,17.34
2022-10-31T10:55:53.767Z,17.48
2022-10-31T10:58:19.875Z,17.61
2022-10-31T11:00:46.066Z,17.70
2022-10-31T11:03:12.216Z,17.80
2022-10-31T11:05:38.307Z,17.90
2022-10-31T11:08:04.429Z,17.91
2022-10-31T11:10:30.511Z,17.94
2022-10-31T11:12:56.612Z,17.98
2022-10-31T11:15:22.863Z,18.07
2022-10-31T11:17:48.969Z,18.13
2022-10-31T11:20:18.137Z,18.19
2022-10-31T11:22:45.736Z,18.26
2022-10-31T11:25:11.849Z,18.34
2022-10-31T11:27:38.015Z,18.28
2022-10-31T11:30:04.147Z,18.30
2022-10-31T11:32:30.236Z,18.35
2022-10-31T11:34:56.341Z,18.37
2022-10-31T11:37:22.478Z,18.44
2022-10-31T11:39:48.566Z,18.47
2022-10-31T11:42:14.669Z,18.46
2022-10-31T11:44:40.770Z,18.51
2022-10-31T11:47:06.863Z,18.56
2022-10-31T11:49:32.992Z,18.56
2022-10-31T11:51:59.113Z,18.55
2022-10-31T11:54:25.197Z,18.59
2022-10-31T11:56:51.302Z,18.69
2022-10-31T11:59:17.437Z,18.78
2022-10-31T12:01:45.153Z,18.80
2022-10-31T12:04:11.533Z,18.79
2022-10-31T12:06:37.927Z,18.90
2022-10-31T12:09:04.030Z,18.90
2022-10-31T12:11:30.121Z,19.04
2022-10-31T12:13:59.868Z,19.08
2022-10-31T12:16:29.914Z,19.15
2022-10-31T12:18:56.063Z,19.19
2022-10-31T12:21:22.162Z,19.20
2022-10-31T12:23:48.278Z,19.23
2022-10-31T12:26:14.400Z,19.17
2022-10-31T12:28:44.886Z,19.25
2022-10-31T12:31:14.071Z,19.27
2022-10-31T12:33:40.196Z,19.28
2022-10-31T12:36:08.542Z,19.33
2022-10-31T12:38:37.158Z,19.39
2022-10-31T12:41:03.253Z,19.44
2022-10-31T12:43:29.377Z,19.42
2022-10-31T12:45:55.491Z,19.48
2022-10-31T12:48:21.577Z,19.54
2022-10-31T12:50:47.738Z,19.55
2022-10-31T12:53:13.900Z,19.64
2022-10-31T12:55:40.055Z,19.65
2022-10-31T12:58:06.198Z,19.66
2022-10-31T13:00:32.283Z,19.69
2022-10-31T13:02:58.363Z,19.71
2022-10-31T13:05:24.488Z,19.72
2022-10-31T13:07:50.592Z,19.71
2022-10-31T13:10:16.693Z,19.76
2022-10-31T13:12:42.819Z,19.73
2022-10-31T13:15:08.914Z,19.73
2022-10-31T13:17:35.389Z,19.75
2022-10-31T13:20:01.508Z,19.73
2022-10-31T13:22:27.628Z,19.72
2022-10-31T13:24:53.731Z,19.77
2022-10-31T13:27:19.849Z,19.80
2022-10-31T13:29:45.961Z,19.79
2022-10-31T13:32:12.065Z,19.80
2022-10-31T13:34:38.179Z,19.79
2022-10-31T13:37:04.283Z,19.78
2022-10-31T13:39:30.385Z,19.78
2022-10-31T13:41:56.512Z,19.80
2022-10-31T13:44:22.631Z,19.80
2022-10-31T13:46:48.723Z,19.77
2022-10-31T13:49:14.837Z,19.71
2022-10-31T13:51:40.928Z,19.68
2022-10-31T13:54:07.026Z,19.69
2022-10-31T13:56:33.142Z,19.70
2022-10-31T13:58:59.240Z,19.71
2022-10-31T14:01:25.409Z,19.67
2022-10-31T14:04:07.805Z,19.68
2022-10-31T14:06:37.782Z,19.70
2022-10-31T14:09:03.956Z,19.68
2022-10-31T14:11:34.487Z,19.66
2022-10-31T14:14:03.313Z,19.64
2022-10-31T14:16:29.428Z,19.62
2022-10-31T14:18:55.594Z,19.61
2022-10-31T14:21:21.711Z,19.60
2022-10-31T14:23:49.587Z,19.61
2022-10-31T14:26:18.552Z,19.65
2022-10-31T14:28:44.647Z,19.67
2022-10-31T14:31:10.750Z,19.74
2022-10-31T14:33:36.831Z,19.79
2022-10-31T14:36:02.922Z,19.74
2022-10-31T14:38:29.034Z,19.74
2022-10-31T14:40:55.134Z,19.81
2022-10-31T14:43:21.251Z,19.82
2022-10-31T14:45:47.359Z,19.78
2022-10-31T14:48:13.469Z,19.69
2022-10-31T14:50:39.564Z,19.68
2022-10-31T14:53:05.709Z,19.69
2022-10-31T14:55:31.819Z,19.62
2022-10-31T14:57:57.935Z,19.63
2022-10-31T15:00:24.557Z,19.62
2022-10-31T15:02:50.651Z,19.58
2022-10-31T15:05:16.749Z,19.55
2022-10-31T15:07:42.864Z,19.53
2022-10-31T15:10:09.005Z,19.46
2022-10-31T15:12:35.106Z,19.50
2022-10-31T15:15:01.221Z,19.51
2022-10-31T15:17:27.324Z,19.53
2022-10-31T15:19:53.433Z,19.57
2022-10-31T15:22:19.553Z,19.53
2022-10-31T15:24:45.675Z,19.43
2022-10-31T15:27:11.783Z,19.42
2022-10-31T15:29:37.892Z,19.36
2022-10-31T15:32:03.982Z,19.32
2022-10-31T15:34:30.077Z,19.32
2022-10-31T15:36:56.192Z,19.26
2022-10-31T15:39:22.313Z,19.20
2022-10-31T15:41:53.944Z,19.12
2022-10-31T15:44:20.748Z,19.08
2022-10-31T15:46:46.853Z,19.01
2022-10-31T15:49:12.949Z,18.99
2022-10-31T15:51:39.167Z,19.00
2022-10-31T15:54:05.294Z,18.92
2022-10-31T15:56:31.411Z,18.87
2022-10-31T15:58:57.521Z,18.81
2022-10-31T16:01:23.749Z,18.72
2022-10-31T16:03:49.936Z,18.66
2022-10-31T16:06:16.052Z,18.66
2022-10-31T16:08:42.144Z,18.58
2022-10-31T16:11:08.227Z,18.57
2022-10-31T16:13:34.386Z,18.53
2022-10-31T16:16:28.914Z,18.48
2022-10-31T16:18:46.601Z,18.43
2022-10-31T16:21:12.694Z,18.40
2022-10-31T16:23:38.797Z,18.36
2022-10-31T16:26:05.383Z,18.29
2022-10-31T16:28:34.285Z,18.24
2022-10-31T16:31:03.124Z,18.20
2022-10-31T16:33:29.241Z,18.18
2022-10-31T16:36:04.230Z,18.12
2022-10-31T16:38:35.900Z,18.08
2022-10-31T16:41:01.983Z,18.01
2022-10-31T16:43:28.075Z,18.02
2022-10-31T16:45:54.194Z,17.96
2022-10-31T16:48:20.315Z,17.90
2022-10-31T16:50:46.410Z,17.85
2022-10-31T16:53:14.532Z,17.83
2022-10-31T16:55:41.099Z,17.80
2022-10-31T16:58:07.199Z,17.74
2022-10-31T17:00:33.322Z,17.71
2022-10-31T17:02:59.484Z,17.67
2022-10-31T17:05:25.580Z,17.64
2022-10-31T17:07:51.798Z,17.58
2022-10-31T17:10:17.897Z,17.52
2022-10-31T17:12:43.984Z,17.50
2022-10-31T17:15:10.118Z,17.44
2022-10-31T17:17:36.301Z,17.40
2022-10-31T17:20:02.455Z,17.38
2022-10-31T17:22:28.617Z,17.36
2022-10-31T17:24:54.756Z,17.32
2022-10-31T17:27:20.849Z,17.25
2022-10-31T17:29:46.969Z,17.21
2022-10-31T17:32:13.173Z,17.15
2022-10-31T17:34:39.272Z,17.14
2022-10-31T17:37:05.453Z,17.09
2022-10-31T17:39:31.544Z,17.06
2022-10-31T17:41:57.632Z,17.02
2022-10-31T17:44:23.756Z,17.00
2022-10-31T17:46:49.854Z,16.97
2022-10-31T17:49:15.952Z,16.94
2022-10-31T17:51:42.057Z,16.91
2022-10-31T17:54:08.185Z,16.89
2022-10-31T17:56:34.286Z,16.89
2022-10-31T17:59:00.479Z,16.92
2022-10-31T18:01:26.714Z,16.89
2022-10-31T18:03:52.914Z,16.89
2022-10-31T18:06:19.035Z,16.88
2022-10-31T18:08:45.114Z,16.89
2022-10-31T18:11:11.226Z,16.86
2022-10-31T18:13:37.383Z,16.85
2022-10-31T18:16:03.484Z,16.82
2022-10-31T18:18:29.570Z,16.82
2022-10-31T18:20:55.743Z,16.81
2022-10-31T18:23:21.855Z,16.79
2022-10-31T18:25:47.951Z,16.75
2022-10-31T18:28:14.083Z,16.72
2022-10-31T18:30:40.181Z,16.71
2022-10-31T18:33:06.283Z,16.67
2022-10-31T18:35:32.403Z,16.66
2022-10-31T18:38:02.208Z,16.65
2022-10-31T18:40:29.399Z,16.59
2022-10-31T18:42:55.506Z,16.55
2022-10-31T18:45:41.515Z,16.55
2022-10-31T18:48:07.696Z,16.52
2022-10-31T18:50:33.782Z,16.50
2022-10-31T18:53:00.217Z,16.44
2022-10-31T18:55:26.676Z,16.40
2022-10-31T18:57:52.763Z,16.40
2022-10-31T19:00:18.862Z,16.38
2022-10-31T19:02:44.966Z,16.34
2022-10-31T19:05:11.060Z,16.33
2022-10-31T19:07:37.151Z,16.34
2022-10-31T19:10:03.269Z,16.30
2022-10-31T19:12:29.371Z,16.32
2022-10-31T19:14:55.451Z,16.30
2022-10-31T19:17:21.889Z,16.28
2022-10-31T19:19:47.977Z,16.27
2022-10-31T19:22:14.089Z,16.25
2022-10-31T19:24:40.219Z,16.25
2022-10-31T19:27:06.311Z,16.23
2022-10-31T19:29:32.408Z,16.22
2022-10-31T19:31:59.004Z,16.17
2022-10-31T19:34:25.095Z,16.20
2022-10-31T19:36:51.199Z,16.19
2022-10-31T19:39:17.339Z,16.18
2022-10-31T19:41:43.442Z,16.18
2022-10-31T19:44:11.917Z,16.17
2022-10-31T19:46:52.851Z,16.15
2022-10-31T19:49:19.750Z,16.15
2022-10-31T19:51:45.856Z,16.14
2022-10-31T19:54:11.955Z,16.14
2022-10-31T19:56:38.059Z,16.12
2022-10-31T19:59:04.195Z,16.11
2022-10-31T20:01:30.348Z,16.12
2022-10-31T20:03:56.512Z,16.08
2022-10-31T20:06:22.631Z,16.11
2022-10-31T20:08:48.742Z,16.11
2022-10-31T20:11:14.846Z,16.07
2022-10-31T20:13:40.972Z,16.07
2022-10-31T20:16:07.069Z,16.06
2022-10-31T20:18:33.161Z,16.05
2022-10-31T20:21:04.514Z,16.03
2022-10-31T20:23:31.228Z,16.01
2022-10-31T20:25:57.343Z,15.98
2022-10-31T20:28:23.466Z,15.97
2022-10-31T20:30:49.546Z,15.98
2022-10-31T20:33:15.640Z,15.99
2022-10-31T20:35:41.753Z,15.97
2022-10-31T20:38:07.850Z,15.96
2022-10-31T20:40:33.971Z,15.96
2022-10-31T20:43:00.097Z,15.94
2022-10-31T20:45:26.195Z,15.93
2022-10-31T20:47:52.281Z,15.92
2022-10-31T20:50:18.409Z,15.91
2022-10-31T20:52:44.516Z,15.90
2022-10-31T20:55:10.623Z,15.90
2022-10-31T20:57:36.744Z,15.86
2022-10-31T21:00:02.852Z,15.86
2022-10-31T21:02:28.984Z,15.85
2022-10-31T21:04:55.087Z,15.89
2022-10-31T21:07:21.188Z,15.88
2022-10-31T21:09:47.271Z,15.85
2022-10-31T21:12:13.394Z,15.84
2022-10-31T21:14:39.479Z,15.85
2022-10-31T21:17:05.566Z,15.88
2022-10-31T21:19:31.700Z,15.88
2022-10-31T21:21:57.804Z,15.86
2022-10-31T21:24:24.181Z,15.85
2022-10-31T21:26:50.304Z,15.88
2022-10-31T21:29:16.523Z,15.89
2022-10-31T21:31:42.646Z,15.90
2022-10-31T21:34:08.757Z,15.92
2022-10-31T21:36:34.846Z,15.92
2022-10-31T21:39:00.948Z,15.94
2022-10-31T21:41:27.108Z,15.96
2022-10-31T21:43:53.218Z,15.94
2022-10-31T21:46:19.305Z,15.94
2022-10-31T21:48:45.441Z,15.96
2022-10-31T21:51:11.544Z,15.97
2022-10-31T21:53:37.649Z,15.97
2022-10-31T21:56:03.783Z,15.97
2022-10-31T21:58:33.413Z,15.97
2022-10-31T22:01:02.356Z,16.00
2022-10-31T22:03:28.536Z,16.00
2022-10-31T22:05:59.580Z,16.00
2022-10-31T22:08:26.652Z,16.02
2022-10-31T22:10:52.779Z,16.01
2022-10-31T22:13:18.883Z,16.01
2022-10-31T22:15:44.986Z,16.01
2022-10-31T22:18:11.093Z,16.04
2022-10-31T22:20:37.193Z,16.06
2022-10-31T22:23:03.309Z,16.08
2022-10-31T22:25:29.472Z,16.10
2022-10-31T22:27:55.558Z,16.12
2022-10-31T22:30:21.673Z,16.11
2022-10-31T22:32:47.791Z,16.15
2022-10-31T22:35:13.884Z,16.15
2022-10-31T22:37:40.054Z,16.17
2022-10-31T22:40:06.672Z,16.18
2022-10-31T22:42:32.773Z,16.21
2022-10-31T22:44:58.866Z,16.23
2022-10-31T22:47:24.974Z,16.25
2022-10-31T22:49:51.063Z,16.27
2022-10-31T22:52:17.143Z,16.26
2022-10-31T22:54:43.249Z,16.28
2022-10-31T22:57:09.335Z,16.29
2022-10-31T22:59:35.428Z,16.31
2022-10-31T23:02:01.697Z,16.32
2022-10-31T23:04:27.885Z,16.36
2022-10-31T23:06:53.969Z,16.35
2022-10-31T23:09:20.080Z,16.31
2022-10-31T23:11:46.225Z,16.33
2022-10-31T23:14:12.323Z,16.35
2022-10-31T23:16:38.443Z,16.34
2022-10-31T23:19:04.540Z,16.39
2022-10-31T23:21:30.672Z,16.39
2022-10-31T23:23:56.792Z,16.40
2022-10-31T23:26:22.893Z,16.40
2022-10-31T23:28:48.974Z,16.43
2022-10-31T23:31:15.363Z,16.41
2022-10-31T23:33:41.451Z,16.40
2022-10-31T23:36:07.560Z,16.44
2022-10-31T23:38:33.657Z,16.47
2022-10-31T23:40:59.760Z,16.46
2022-10-31T23:43:25.847Z,16.49
2022-10-31T23:45:51.973Z,16.51
2022-10-31T23:48:18.078Z,16.50
2022-10-31T23:50:44.178Z,16.54
2022-10-31T23:53:10.288Z,16.54
2022-10-31T23:55:36.394Z,16.59
2022-10-31T23:58:02.825Z,16.64
